sensor_id;sensor_type;location;lat;lon;timestamp;P1;durP1;ratioP1;P2;durP2;ratioP2
31095;SDS011;17749;51.962;8.560;2023-02-28T06:02:06;7.00;;;2.67;;
31095;SDS011;17749;51.962;8.560;2023-02-28T06:04:38;8.75;;;3.15;;
31095;SDS011;17749;51.962;8.560;2023-02-28T06:07:04;7.80;;;4.05;;
31095;SDS011;17749;51.962;8.560;2023-02-28T06:09:31;5.97;;;3.60;;
31095;SDS011;17749;51.962;8.560;2023-02-28T06:12:02;9.25;;;4.55;;
31095;SDS011;17749;51.962;8.560;2023-02-28T06:14:32;9.45;;;4.38;;
31095;SDS011;17749;51.962;8.560;2023-02-28T06:17:00;6.43;;;4.18;;
31095;SDS011;17749;51.962;8.560;2023-02-28T06:19:27;6.13;;;4.10;;
31095;SDS011;17749;51.962;8.560;2023-02-28T06:21:56;5.63;;;3.33;;
31095;SDS011;17749;51.962;8.560;2023-02-28T06:24:24;7.82;;;3.97;;
31095;SDS011;17749;51.962;8.560;2023-02-28T06:26:54;9.77;;;4.68;;
31095;SDS011;17749;51.962;8.560;2023-02-28T06:29:21;10.98;;;4.50;;
31095;SDS011;17749;51.962;8.560;2023-02-28T06:31:48;7.90;;;4.30;;
31095;SDS011;17749;51.962;8.560;2023-02-28T06:34:15;7.97;;;4.90;;
31095;SDS011;17749;51.962;8.560;2023-02-28T06:36:43;6.95;;;4.45;;
31095;SDS011;17749;51.962;8.560;2023-02-28T06:39:10;10.50;;;5.03;;
31095;SDS011;17749;51.962;8.560;2023-02-28T06:41:37;12.07;;;6.63;;
31095;SDS011;17749;51.962;8.560;2023-02-28T06:44:20;11.35;;;6.30;;
31095;SDS011;17749;51.962;8.560;2023-02-28T06:46:48;7.80;;;5.18;;
31095;SDS011;17749;51.962;8.560;2023-02-28T06:49:15;6.82;;;3.65;;
31095;SDS011;17749;51.962;8.560;2023-02-28T06:51:43;7.47;;;3.72;;
31095;SDS011;17749;51.962;8.560;2023-02-28T06:54:14;5.03;;;3.17;;
31095;SDS011;17749;51.962;8.560;2023-02-28T06:56:42;5.15;;;2.83;;
31095;SDS011;17749;51.962;8.560;2023-02-28T06:59:08;8.25;;;3.35;;
31095;SDS011;17749;51.962;8.560;2023-02-28T07:01:35;5.65;;;3.10;;
31095;SDS011;17749;51.962;8.560;2023-02-28T07:04:02;7.13;;;3.28;;
31095;SDS011;17749;51.962;8.560;2023-02-28T07:06:32;6.22;;;2.95;;
31095;SDS011;17749;51.962;8.560;2023-02-28T07:08:59;4.30;;;2.80;;
31095;SDS011;17749;51.962;8.560;2023-02-28T07:11:27;10.20;;;3.28;;
31095;SDS011;17749;51.962;8.560;2023-02-28T07:13:55;3.17;;;2.75;;
31095;SDS011;17749;51.962;8.560;2023-02-28T07:16:23;9.63;;;3.08;;
31095;SDS011;17749;51.962;8.560;2023-02-28T07:18:54;4.90;;;3.03;;
31095;SDS011;17749;51.962;8.560;2023-02-28T07:21:21;4.50;;;2.45;;
31095;SDS011;17749;51.962;8.560;2023-02-28T07:23:49;5.38;;;2.33;;
31095;SDS011;17749;51.962;8.560;2023-02-28T07:26:16;3.95;;;2.53;;
31095;SDS011;17749;51.962;8.560;2023-02-28T07:28:45;6.43;;;3.90;;
31095;SDS011;17749;51.962;8.560;2023-02-28T07:31:14;6.25;;;3.90;;
31095;SDS011;17749;51.962;8.560;2023-02-28T07:33:42;7.85;;;5.40;;
31095;SDS011;17749;51.962;8.560;2023-02-28T07:36:11;8.48;;;5.30;;
31095;SDS011;17749;51.962;8.560;2023-02-28T07:38:42;8.55;;;5.32;;
31095;SDS011;17749;51.962;8.560;2023-02-28T07:41:14;6.30;;;4.90;;
31095;SDS011;17749;51.962;8.560;2023-02-28T07:43:42;6.60;;;5.07;;
31095;SDS011;17749;51.962;8.560;2023-02-28T07:46:11;5.05;;;3.60;;
31095;SDS011;17749;51.962;8.560;2023-02-28T07:48:41;5.45;;;3.38;;
31095;SDS011;17749;51.962;8.560;2023-02-28T07:51:09;7.78;;;2.80;;
31095;SDS011;17749;51.962;8.560;2023-02-28T07:53:36;4.88;;;2.75;;
31095;SDS011;17749;51.962;8.560;2023-02-28T07:56:03;3.83;;;2.22;;
31095;SDS011;17749;51.962;8.560;2023-02-28T07:58:30;4.38;;;2.15;;
31095;SDS011;17749;51.962;8.560;2023-02-28T08:01:04;2.88;;;1.60;;
31095;SDS011;17749;51.962;8.560;2023-02-28T08:03:35;1.83;;;1.50;;
31095;SDS011;17749;51.962;8.560;2023-02-28T08:06:06;4.00;;;1.90;;
31095;SDS011;17749;51.962;8.560;2023-02-28T08:08:34;4.90;;;2.17;;
31095;SDS011;17749;51.962;8.560;2023-02-28T08:11:02;5.47;;;2.08;;
31095;SDS011;17749;51.962;8.560;2023-02-28T08:13:29;2.38;;;1.55;;
31095;SDS011;17749;51.962;8.560;2023-02-28T08:15:57;2.85;;;1.70;;
31095;SDS011;17749;51.962;8.560;2023-02-28T08:18:23;5.78;;;1.75;;
31095;SDS011;17749;51.962;8.560;2023-02-28T08:20:50;4.00;;;2.25;;
31095;SDS011;17749;51.962;8.560;2023-02-28T08:23:17;2.13;;;1.50;;
31095;SDS011;17749;51.962;8.560;2023-02-28T08:25:45;3.47;;;1.95;;
31095;SDS011;17749;51.962;8.560;2023-02-28T08:28:19;2.60;;;1.63;;
31095;SDS011;17749;51.962;8.560;2023-02-28T08:30:46;2.90;;;1.52;;
31095;SDS011;17749;51.962;8.560;2023-02-28T08:33:13;5.00;;;1.88;;
31095;SDS011;17749;51.962;8.560;2023-02-28T08:35:40;2.80;;;1.88;;
31095;SDS011;17749;51.962;8.560;2023-02-28T08:38:06;3.53;;;1.52;;
31095;SDS011;17749;51.962;8.560;2023-02-28T08:40:33;2.72;;;1.50;;
31095;SDS011;17749;51.962;8.560;2023-02-28T08:43:00;3.10;;;1.80;;
31095;SDS011;17749;51.962;8.560;2023-02-28T08:45:27;5.47;;;1.50;;
31095;SDS011;17749;51.962;8.560;2023-02-28T08:47:54;4.97;;;1.80;;
31095;SDS011;17749;51.962;8.560;2023-02-28T08:50:22;5.40;;;1.70;;
31095;SDS011;17749;51.962;8.560;2023-02-28T08:52:50;2.92;;;1.90;;
31095;SDS011;17749;51.962;8.560;2023-02-28T08:55:17;2.83;;;1.73;;
31095;SDS011;17749;51.962;8.560;2023-02-28T08:57:44;4.30;;;1.55;;
31095;SDS011;17749;51.962;8.560;2023-02-28T09:00:11;3.47;;;1.60;;
31095;SDS011;17749;51.962;8.560;2023-02-28T09:02:40;2.67;;;1.58;;
31095;SDS011;17749;51.962;8.560;2023-02-28T09:05:09;3.45;;;1.45;;
31095;SDS011;17749;51.962;8.560;2023-02-28T09:07:36;2.97;;;1.58;;
31095;SDS011;17749;51.962;8.560;2023-02-28T09:10:03;5.95;;;1.65;;
31095;SDS011;17749;51.962;8.560;2023-02-28T09:12:32;1.77;;;1.27;;
31095;SDS011;17749;51.962;8.560;2023-02-28T09:15:01;2.38;;;1.83;;
31095;SDS011;17749;51.962;8.560;2023-02-28T09:17:28;7.63;;;2.05;;
31095;SDS011;17749;51.962;8.560;2023-02-28T09:19:56;5.50;;;2.22;;
31095;SDS011;17749;51.962;8.560;2023-02-28T09:22:24;3.75;;;1.80;;
31095;SDS011;17749;51.962;8.560;2023-02-28T09:24:50;3.83;;;1.90;;
31095;SDS011;17749;51.962;8.560;2023-02-28T09:27:17;2.15;;;1.40;;
31095;SDS011;17749;51.962;8.560;2023-02-28T09:29:44;4.55;;;1.90;;
31095;SDS011;17749;51.962;8.560;2023-02-28T09:32:11;4.05;;;2.03;;
31095;SDS011;17749;51.962;8.560;2023-02-28T09:34:38;3.63;;;2.53;;
31095;SDS011;17749;51.962;8.560;2023-02-28T09:37:05;4.63;;;2.67;;
31095;SDS011;17749;51.962;8.560;2023-02-28T09:39:32;3.28;;;2.40;;
31095;SDS011;17749;51.962;8.560;2023-02-28T09:41:59;4.30;;;2.78;;
31095;SDS011;17749;51.962;8.560;2023-02-28T09:44:33;3.55;;;2.15;;
31095;SDS011;17749;51.962;8.560;2023-02-28T09:49:52;4.00;;;2.63;;
31095;SDS011;17749;51.962;8.560;2023-02-28T09:52:21;8.60;;;2.42;;
31095;SDS011;17749;51.962;8.560;2023-02-28T09:54:54;5.85;;;2.80;;
31095;SDS011;17749;51.962;8.560;2023-02-28T10:00:19;9.15;;;5.05;;
31095;SDS011;17749;51.962;8.560;2023-02-28T10:08:22;8.70;;;4.55;;
31095;SDS011;17749;51.962;8.560;2023-02-28T10:10:57;8.02;;;4.82;;
31095;SDS011;17749;51.962;8.560;2023-02-28T10:16:06;4.55;;;2.55;;
31095;SDS011;17749;51.962;8.560;2023-02-28T10:18:42;8.07;;;3.78;;
31095;SDS011;17749;51.962;8.560;2023-02-28T10:21:15;5.07;;;2.50;;
31095;SDS011;17749;51.962;8.560;2023-02-28T10:23:47;8.27;;;4.38;;
31095;SDS011;17749;51.962;8.560;2023-02-28T10:26:15;4.53;;;2.70;;
31095;SDS011;17749;51.962;8.560;2023-02-28T10:28:44;3.22;;;2.20;;
31095;SDS011;17749;51.962;8.560;2023-02-28T10:31:17;3.50;;;2.20;;
31095;SDS011;17749;51.962;8.560;2023-02-28T10:33:45;3.85;;;2.20;;
31095;SDS011;17749;51.962;8.560;2023-02-28T10:36:14;8.07;;;3.15;;
31095;SDS011;17749;51.962;8.560;2023-02-28T10:38:43;7.07;;;2.95;;
31095;SDS011;17749;51.962;8.560;2023-02-28T10:41:12;6.50;;;3.10;;
31095;SDS011;17749;51.962;8.560;2023-02-28T10:43:42;5.78;;;2.40;;
31095;SDS011;17749;51.962;8.560;2023-02-28T10:46:18;5.18;;;2.70;;
31095;SDS011;17749;51.962;8.560;2023-02-28T10:49:00;4.93;;;3.10;;
31095;SDS011;17749;51.962;8.560;2023-02-28T10:51:36;8.65;;;3.20;;
31095;SDS011;17749;51.962;8.560;2023-02-28T10:54:05;5.25;;;2.40;;
31095;SDS011;17749;51.962;8.560;2023-02-28T10:56:40;4.53;;;2.33;;
31095;SDS011;17749;51.962;8.560;2023-02-28T11:01:39;4.25;;;2.60;;
31095;SDS011;17749;51.962;8.560;2023-02-28T11:04:48;2.92;;;2.20;;
31095;SDS011;17749;51.962;8.560;2023-02-28T11:06:57;2.90;;;1.80;;
31095;SDS011;17749;51.962;8.560;2023-02-28T11:11:56;2.63;;;1.73;;
31095;SDS011;17749;51.962;8.560;2023-02-28T11:14:30;3.30;;;1.67;;
31095;SDS011;17749;51.962;8.560;2023-02-28T11:17:46;6.32;;;2.85;;
31095;SDS011;17749;51.962;8.560;2023-02-28T11:19:51;5.05;;;1.50;;
31095;SDS011;17749;51.962;8.560;2023-02-28T11:22:23;2.45;;;1.10;;
31095;SDS011;17749;51.962;8.560;2023-02-28T11:24:56;3.10;;;1.30;;
31095;SDS011;17749;51.962;8.560;2023-02-28T11:27:26;3.78;;;1.48;;
31095;SDS011;17749;51.962;8.560;2023-02-28T11:32:50;2.97;;;1.48;;
31095;SDS011;17749;51.962;8.560;2023-02-28T11:35:19;3.90;;;1.45;;
31095;SDS011;17749;51.962;8.560;2023-02-28T11:37:51;4.53;;;2.85;;
31095;SDS011;17749;51.962;8.560;2023-02-28T11:40:23;5.70;;;2.80;;
31095;SDS011;17749;51.962;8.560;2023-02-28T11:51:53;5.35;;;2.10;;
31095;SDS011;17749;51.962;8.560;2023-02-28T11:57:36;3.70;;;2.38;;
31095;SDS011;17749;51.962;8.560;2023-02-28T12:00:37;3.40;;;2.20;;
31095;SDS011;17749;51.962;8.560;2023-02-28T12:09:00;5.07;;;2.20;;
31095;SDS011;17749;51.962;8.560;2023-02-28T12:11:39;4.20;;;2.00;;
31095;SDS011;17749;51.962;8.560;2023-02-28T12:15:14;5.30;;;2.95;;
31095;SDS011;17749;51.962;8.560;2023-02-28T12:17:13;4.47;;;2.42;;
31095;SDS011;17749;51.962;8.560;2023-02-28T12:26:29;3.28;;;1.98;;
31095;SDS011;17749;51.962;8.560;2023-02-28T12:29:21;2.97;;;1.90;;
31095;SDS011;17749;51.962;8.560;2023-02-28T12:34:44;4.10;;;2.03;;
31095;SDS011;17749;51.962;8.560;2023-02-28T12:37:17;4.25;;;2.33;;
31095;SDS011;17749;51.962;8.560;2023-02-28T12:39:52;2.78;;;1.85;;
31095;SDS011;17749;51.962;8.560;2023-02-28T12:42:27;3.92;;;2.15;;
31095;SDS011;17749;51.962;8.560;2023-02-28T12:45:05;3.80;;;2.10;;
31095;SDS011;17749;51.962;8.560;2023-02-28T12:47:38;3.58;;;2.28;;
31095;SDS011;17749;51.962;8.560;2023-02-28T12:50:11;5.32;;;2.85;;
31095;SDS011;17749;51.962;8.560;2023-02-28T12:57:42;3.50;;;2.20;;
31095;SDS011;17749;51.962;8.560;2023-02-28T13:00:19;2.85;;;1.98;;
31095;SDS011;17749;51.962;8.560;2023-02-28T13:11:07;5.93;;;1.98;;
31095;SDS011;17749;51.962;8.560;2023-02-28T13:13:51;4.22;;;1.85;;
31095;SDS011;17749;51.962;8.560;2023-02-28T13:16:24;4.15;;;2.10;;
31095;SDS011;17749;51.962;8.560;2023-02-28T13:18:51;3.65;;;2.10;;
31095;SDS011;17749;51.962;8.560;2023-02-28T13:21:23;3.42;;;1.95;;
31095;SDS011;17749;51.962;8.560;2023-02-28T13:28:58;6.70;;;2.40;;
31095;SDS011;17749;51.962;8.560;2023-02-28T13:31:27;7.63;;;2.80;;
31095;SDS011;17749;51.962;8.560;2023-02-28T13:36:26;6.78;;;2.35;;
31095;SDS011;17749;51.962;8.560;2023-02-28T13:46:28;6.78;;;2.42;;
31095;SDS011;17749;51.962;8.560;2023-02-28T13:48:55;5.93;;;2.70;;
31095;SDS011;17749;51.962;8.560;2023-02-28T13:57:10;4.22;;;2.72;;
31095;SDS011;17749;51.962;8.560;2023-02-28T14:02:28;5.45;;;2.70;;
31095;SDS011;17749;51.962;8.560;2023-02-28T14:05:17;4.82;;;2.80;;
31095;SDS011;17749;51.962;8.560;2023-02-28T14:07:48;6.13;;;3.22;;
31095;SDS011;17749;51.962;8.560;2023-02-28T14:10:29;5.90;;;2.67;;
31095;SDS011;17749;51.962;8.560;2023-02-28T14:13:13;10.73;;;4.10;;
31095;SDS011;17749;51.962;8.560;2023-02-28T14:16:01;4.60;;;3.30;;
31095;SDS011;17749;51.962;8.560;2023-02-28T14:18:33;6.50;;;3.72;;
31095;SDS011;17749;51.962;8.560;2023-02-28T14:21:19;5.43;;;3.20;;
31095;SDS011;17749;51.962;8.560;2023-02-28T14:27:03;6.55;;;3.00;;
31095;SDS011;17749;51.962;8.560;2023-02-28T14:32:27;4.60;;;2.67;;
31095;SDS011;17749;51.962;8.560;2023-02-28T14:35:04;4.78;;;3.00;;
31095;SDS011;17749;51.962;8.560;2023-02-28T14:37:41;4.60;;;2.58;;
31095;SDS011;17749;51.962;8.560;2023-02-28T14:40:27;5.43;;;2.67;;
31095;SDS011;17749;51.962;8.560;2023-02-28T14:42:58;3.85;;;2.38;;
31095;SDS011;17749;51.962;8.560;2023-02-28T14:45:27;5.97;;;3.25;;
31095;SDS011;17749;51.962;8.560;2023-02-28T14:47:57;8.15;;;3.75;;
31095;SDS011;17749;51.962;8.560;2023-02-28T14:50:34;4.78;;;2.70;;
31095;SDS011;17749;51.962;8.560;2023-02-28T14:53:02;4.80;;;3.00;;
31095;SDS011;17749;51.962;8.560;2023-02-28T14:55:33;8.45;;;4.30;;
31095;SDS011;17749;51.962;8.560;2023-02-28T14:58:22;4.82;;;3.00;;
31095;SDS011;17749;51.962;8.560;2023-02-28T15:00:53;3.85;;;2.33;;
31095;SDS011;17749;51.962;8.560;2023-02-28T15:03:24;6.63;;;2.50;;
31095;SDS011;17749;51.962;8.560;2023-02-28T15:05:59;4.03;;;2.88;;
31095;SDS011;17749;51.962;8.560;2023-02-28T15:08:29;5.03;;;2.35;;
31095;SDS011;17749;51.962;8.560;2023-02-28T15:10:59;5.10;;;3.00;;
31095;SDS011;17749;51.962;8.560;2023-02-28T15:13:45;10.35;;;3.33;;
31095;SDS011;17749;51.962;8.560;2023-02-28T15:16:17;6.38;;;3.50;;
31095;SDS011;17749;51.962;8.560;2023-02-28T15:18:49;6.55;;;3.67;;
31095;SDS011;17749;51.962;8.560;2023-02-28T15:21:23;7.28;;;3.13;;
31095;SDS011;17749;51.962;8.560;2023-02-28T15:23:54;7.38;;;3.13;;
31095;SDS011;17749;51.962;8.560;2023-02-28T15:26:27;4.40;;;2.70;;
31095;SDS011;17749;51.962;8.560;2023-02-28T15:29:02;5.78;;;2.70;;
31095;SDS011;17749;51.962;8.560;2023-02-28T15:31:33;6.30;;;2.83;;
31095;SDS011;17749;51.962;8.560;2023-02-28T15:34:26;5.65;;;3.22;;
31095;SDS011;17749;51.962;8.560;2023-02-28T15:40:16;4.32;;;2.38;;
31095;SDS011;17749;51.962;8.560;2023-02-28T15:42:59;4.78;;;3.03;;
31095;SDS011;17749;51.962;8.560;2023-02-28T15:45:34;7.97;;;2.83;;
31095;SDS011;17749;51.962;8.560;2023-02-28T15:48:05;5.13;;;2.53;;
31095;SDS011;17749;51.962;8.560;2023-02-28T15:50:41;6.68;;;3.08;;
31095;SDS011;17749;51.962;8.560;2023-02-28T15:53:13;9.10;;;3.45;;
31095;SDS011;17749;51.962;8.560;2023-02-28T15:55:42;6.53;;;2.67;;
31095;SDS011;17749;51.962;8.560;2023-02-28T15:58:10;4.22;;;2.70;;
31095;SDS011;17749;51.962;8.560;2023-02-28T16:00:39;3.50;;;2.78;;
31095;SDS011;17749;51.962;8.560;2023-02-28T16:03:46;9.05;;;3.83;;
31095;SDS011;17749;51.962;8.560;2023-02-28T16:08:44;5.45;;;3.50;;
31095;SDS011;17749;51.962;8.560;2023-02-28T16:11:10;4.07;;;2.72;;
31095;SDS011;17749;51.962;8.560;2023-02-28T16:13:38;4.63;;;2.92;;
31095;SDS011;17749;51.962;8.560;2023-02-28T16:16:05;5.75;;;3.70;;
31095;SDS011;17749;51.962;8.560;2023-02-28T16:18:32;6.57;;;3.75;;
31095;SDS011;17749;51.962;8.560;2023-02-28T16:20:58;7.28;;;4.55;;
31095;SDS011;17749;51.962;8.560;2023-02-28T16:23:25;7.03;;;3.67;;
31095;SDS011;17749;51.962;8.560;2023-02-28T16:25:52;6.43;;;3.92;;
31095;SDS011;17749;51.962;8.560;2023-02-28T16:30:53;4.35;;;3.05;;
31095;SDS011;17749;51.962;8.560;2023-02-28T16:33:20;5.07;;;3.45;;
31095;SDS011;17749;51.962;8.560;2023-02-28T16:35:47;6.70;;;2.80;;
31095;SDS011;17749;51.962;8.560;2023-02-28T16:38:14;7.80;;;3.65;;
31095;SDS011;17749;51.962;8.560;2023-02-28T16:40:40;4.10;;;2.83;;
31095;SDS011;17749;51.962;8.560;2023-02-28T16:43:10;6.43;;;3.50;;
31095;SDS011;17749;51.962;8.560;2023-02-28T16:45:42;4.38;;;2.90;;
31095;SDS011;17749;51.962;8.560;2023-02-28T16:48:14;2.88;;;2.50;;
31095;SDS011;17749;51.962;8.560;2023-02-28T16:50:42;4.88;;;2.92;;
31095;SDS011;17749;51.962;8.560;2023-02-28T16:53:12;5.50;;;3.15;;
31095;SDS011;17749;51.962;8.560;2023-02-28T16:55:40;7.05;;;3.25;;
31095;SDS011;17749;51.962;8.560;2023-02-28T16:58:10;5.28;;;3.40;;
31095;SDS011;17749;51.962;8.560;2023-02-28T17:00:41;6.38;;;2.90;;
31095;SDS011;17749;51.962;8.560;2023-02-28T17:03:22;7.20;;;2.90;;
31095;SDS011;17749;51.962;8.560;2023-02-28T17:05:59;5.25;;;2.72;;
31095;SDS011;17749;51.962;8.560;2023-02-28T17:08:26;4.60;;;3.17;;
31095;SDS011;17749;51.962;8.560;2023-02-28T17:10:55;11.73;;;4.43;;
31095;SDS011;17749;51.962;8.560;2023-02-28T17:13:22;8.35;;;3.88;;
31095;SDS011;17749;51.962;8.560;2023-02-28T17:15:49;7.65;;;4.50;;
31095;SDS011;17749;51.962;8.560;2023-02-28T17:18:17;5.63;;;4.13;;
31095;SDS011;17749;51.962;8.560;2023-02-28T17:20:46;6.68;;;4.18;;
31095;SDS011;17749;51.962;8.560;2023-02-28T17:23:14;6.18;;;3.33;;
31095;SDS011;17749;51.962;8.560;2023-02-28T17:25:41;6.78;;;3.90;;
31095;SDS011;17749;51.962;8.560;2023-02-28T17:28:15;5.53;;;3.80;;
31095;SDS011;17749;51.962;8.560;2023-02-28T17:30:42;6.07;;;3.45;;
31095;SDS011;17749;51.962;8.560;2023-02-28T17:33:13;6.32;;;4.78;;
31095;SDS011;17749;51.962;8.560;2023-02-28T17:35:41;9.13;;;4.53;;
31095;SDS011;17749;51.962;8.560;2023-02-28T17:38:12;5.85;;;3.40;;
31095;SDS011;17749;51.962;8.560;2023-02-28T17:40:42;5.75;;;3.05;;
31095;SDS011;17749;51.962;8.560;2023-02-28T17:43:09;7.90;;;4.00;;
31095;SDS011;17749;51.962;8.560;2023-02-28T17:45:36;5.32;;;3.85;;
31095;SDS011;17749;51.962;8.560;2023-02-28T17:48:03;8.57;;;5.05;;
31095;SDS011;17749;51.962;8.560;2023-02-28T17:50:31;12.80;;;5.82;;
31095;SDS011;17749;51.962;8.560;2023-02-28T17:52:59;11.00;;;5.55;;
31095;SDS011;17749;51.962;8.560;2023-02-28T17:55:26;11.60;;;5.47;;
31095;SDS011;17749;51.962;8.560;2023-02-28T17:57:53;7.20;;;4.13;;
31095;SDS011;17749;51.962;8.560;2023-02-28T18:00:20;7.63;;;4.60;;
31095;SDS011;17749;51.962;8.560;2023-02-28T18:02:50;6.28;;;4.15;;
31095;SDS011;17749;51.962;8.560;2023-02-28T18:05:17;6.45;;;4.07;;
31095;SDS011;17749;51.962;8.560;2023-02-28T18:07:44;5.88;;;3.78;;
31095;SDS011;17749;51.962;8.560;2023-02-28T18:10:13;5.38;;;3.90;;
31095;SDS011;17749;51.962;8.560;2023-02-28T18:12:46;7.13;;;3.95;;
31095;SDS011;17749;51.962;8.560;2023-02-28T18:15:14;6.25;;;4.00;;
31095;SDS011;17749;51.962;8.560;2023-02-28T18:17:43;6.53;;;4.20;;
31095;SDS011;17749;51.962;8.560;2023-02-28T18:20:10;5.60;;;3.75;;
31095;SDS011;17749;51.962;8.560;2023-02-28T18:22:38;7.32;;;4.40;;
31095;SDS011;17749;51.962;8.560;2023-02-28T18:25:06;7.15;;;4.32;;
31095;SDS011;17749;51.962;8.560;2023-02-28T18:27:35;8.73;;;5.38;;
31095;SDS011;17749;51.962;8.560;2023-02-28T18:30:03;8.00;;;5.10;;
31095;SDS011;17749;51.962;8.560;2023-02-28T18:32:30;9.50;;;5.38;;
31095;SDS011;17749;51.962;8.560;2023-02-28T18:34:57;12.52;;;5.60;;
31095;SDS011;17749;51.962;8.560;2023-02-28T18:37:24;12.50;;;5.05;;
31095;SDS011;17749;51.962;8.560;2023-02-28T18:39:51;8.50;;;5.18;;
31095;SDS011;17749;51.962;8.560;2023-02-28T18:42:17;8.80;;;5.75;;
31095;SDS011;17749;51.962;8.560;2023-02-28T18:44:44;9.52;;;5.28;;
31095;SDS011;17749;51.962;8.560;2023-02-28T18:47:11;12.57;;;6.10;;
31095;SDS011;17749;51.962;8.560;2023-02-28T18:49:38;11.60;;;7.22;;
31095;SDS011;17749;51.962;8.560;2023-02-28T18:52:05;17.58;;;10.13;;
31095;SDS011;17749;51.962;8.560;2023-02-28T18:54:32;14.38;;;8.63;;
31095;SDS011;17749;51.962;8.560;2023-02-28T18:56:59;15.57;;;9.10;;
31095;SDS011;17749;51.962;8.560;2023-02-28T18:59:26;12.20;;;7.75;;
31095;SDS011;17749;51.962;8.560;2023-02-28T19:01:53;15.65;;;7.50;;
31095;SDS011;17749;51.962;8.560;2023-02-28T19:04:20;12.50;;;7.72;;
31095;SDS011;17749;51.962;8.560;2023-02-28T19:06:47;11.27;;;7.90;;
31095;SDS011;17749;51.962;8.560;2023-02-28T19:09:15;12.32;;;7.07;;
31095;SDS011;17749;51.962;8.560;2023-02-28T19:11:41;9.95;;;6.60;;
31095;SDS011;17749;51.962;8.560;2023-02-28T19:14:08;10.93;;;6.40;;
31095;SDS011;17749;51.962;8.560;2023-02-28T19:16:35;8.43;;;5.88;;
31095;SDS011;17749;51.962;8.560;2023-02-28T19:19:02;10.95;;;6.53;;
31095;SDS011;17749;51.962;8.560;2023-02-28T19:21:29;13.13;;;6.82;;
31095;SDS011;17749;51.962;8.560;2023-02-28T19:23:56;9.27;;;6.32;;
31095;SDS011;17749;51.962;8.560;2023-02-28T19:26:23;8.32;;;6.05;;
31095;SDS011;17749;51.962;8.560;2023-02-28T19:28:52;8.57;;;6.50;;
31095;SDS011;17749;51.962;8.560;2023-02-28T19:31:23;14.73;;;7.45;;
31095;SDS011;17749;51.962;8.560;2023-02-28T19:33:51;19.25;;;8.68;;
31095;SDS011;17749;51.962;8.560;2023-02-28T19:36:18;14.40;;;7.95;;
31095;SDS011;17749;51.962;8.560;2023-02-28T19:38:46;14.68;;;7.43;;
31095;SDS011;17749;51.962;8.560;2023-02-28T19:41:14;14.18;;;7.13;;
31095;SDS011;17749;51.962;8.560;2023-02-28T19:43:43;14.70;;;7.75;;
31095;SDS011;17749;51.962;8.560;2023-02-28T19:46:10;12.90;;;6.90;;
31095;SDS011;17749;51.962;8.560;2023-02-28T19:48:38;10.48;;;6.53;;
31095;SDS011;17749;51.962;8.560;2023-02-28T19:51:06;9.52;;;5.88;;
31095;SDS011;17749;51.962;8.560;2023-02-28T19:53:36;10.73;;;6.50;;
31095;SDS011;17749;51.962;8.560;2023-02-28T19:56:04;10.32;;;6.78;;
31095;SDS011;17749;51.962;8.560;2023-02-28T19:58:32;10.50;;;6.60;;
31095;SDS011;17749;51.962;8.560;2023-02-28T20:01:09;12.20;;;7.40;;
31095;SDS011;17749;51.962;8.560;2023-02-28T20:03:38;10.90;;;6.35;;
31095;SDS011;17749;51.962;8.560;2023-02-28T20:06:06;10.98;;;6.05;;
31095;SDS011;17749;51.962;8.560;2023-02-28T20:08:35;10.98;;;6.88;;
31095;SDS011;17749;51.962;8.560;2023-02-28T20:11:06;11.05;;;7.07;;
31095;SDS011;17749;51.962;8.560;2023-02-28T20:13:35;10.68;;;6.25;;
31095;SDS011;17749;51.962;8.560;2023-02-28T20:16:04;13.73;;;7.28;;
31095;SDS011;17749;51.962;8.560;2023-02-28T20:18:35;12.52;;;7.53;;
31095;SDS011;17749;51.962;8.560;2023-02-28T20:21:09;12.95;;;7.65;;
31095;SDS011;17749;51.962;8.560;2023-02-28T20:23:37;12.52;;;8.20;;
31095;SDS011;17749;51.962;8.560;2023-02-28T20:26:05;13.23;;;6.97;;
31095;SDS011;17749;51.962;8.560;2023-02-28T20:28:33;15.80;;;7.47;;
31095;SDS011;17749;51.962;8.560;2023-02-28T20:31:00;10.63;;;6.85;;
31095;SDS011;17749;51.962;8.560;2023-02-28T20:33:27;11.93;;;7.18;;
31095;SDS011;17749;51.962;8.560;2023-02-28T20:36:00;14.98;;;7.47;;
31095;SDS011;17749;51.962;8.560;2023-02-28T20:38:27;11.93;;;6.45;;
31095;SDS011;17749;51.962;8.560;2023-02-28T20:40:55;10.20;;;6.28;;
31095;SDS011;17749;51.962;8.560;2023-02-28T20:43:25;14.43;;;6.97;;
31095;SDS011;17749;51.962;8.560;2023-02-28T20:45:53;13.00;;;7.00;;
31095;SDS011;17749;51.962;8.560;2023-02-28T20:48:24;12.52;;;6.82;;
31095;SDS011;17749;51.962;8.560;2023-02-28T20:50:52;12.68;;;7.05;;
31095;SDS011;17749;51.962;8.560;2023-02-28T20:53:20;13.35;;;7.72;;
31095;SDS011;17749;51.962;8.560;2023-02-28T20:56:32;14.45;;;7.43;;
31095;SDS011;17749;51.962;8.560;2023-02-28T20:58:45;13.30;;;7.35;;
31095;SDS011;17749;51.962;8.560;2023-02-28T21:01:14;10.75;;;6.88;;
31095;SDS011;17749;51.962;8.560;2023-02-28T21:03:44;11.55;;;6.13;;
31095;SDS011;17749;51.962;8.560;2023-02-28T21:06:17;9.75;;;6.35;;
31095;SDS011;17749;51.962;8.560;2023-02-28T21:08:45;11.02;;;6.25;;
31095;SDS011;17749;51.962;8.560;2023-02-28T21:11:13;11.32;;;6.90;;
31095;SDS011;17749;51.962;8.560;2023-02-28T21:13:43;12.80;;;7.28;;
31095;SDS011;17749;51.962;8.560;2023-02-28T21:16:11;11.55;;;6.85;;
31095;SDS011;17749;51.962;8.560;2023-02-28T21:18:43;12.93;;;6.78;;
31095;SDS011;17749;51.962;8.560;2023-02-28T21:21:12;8.77;;;6.13;;
31095;SDS011;17749;51.962;8.560;2023-02-28T21:23:41;15.05;;;6.22;;
31095;SDS011;17749;51.962;8.560;2023-02-28T21:28:41;13.90;;;6.78;;
